createdAt,value
2022-07-25T00:00:43.203Z,97754.75
2022-07-25T00:03:13.507Z,97754.22
2022-07-25T00:05:47.504Z,97755.13
2022-07-25T00:08:16.662Z,97755.38
2022-07-25T00:10:46.056Z,97756.56
2022-07-25T00:13:14.997Z,97760.16
2022-07-25T00:15:44.156Z,97753.22
2022-07-25T00:18:13.129Z,97754.59
2022-07-25T00:20:41.916Z,97764.03
2022-07-25T00:23:11.258Z,97761.13
2022-07-25T00:25:41.373Z,97767.63
2022-07-25T00:28:10.256Z,97765.69
2022-07-25T00:30:39.242Z,97768.06
2022-07-25T00:33:08.385Z,97768.78
2022-07-25T00:35:37.637Z,97766.41
2022-07-25T00:38:06.536Z,97765.31
2022-07-25T00:40:36.095Z,97768.25
2022-07-25T00:43:05.296Z,97766.59
2022-07-25T00:45:34.324Z,97776.88
2022-07-25T00:48:03.538Z,97779.34
2022-07-25T00:50:32.781Z,97773.41
2022-07-25T00:53:01.733Z,97782.16
2022-07-25T00:55:31.611Z,97776.88
2022-07-25T00:58:01.121Z,97790.06
2022-07-25T01:00:30.658Z,97785.31
2022-07-25T01:02:59.941Z,97789.97
2022-07-25T01:05:29.638Z,97793.53
2022-07-25T01:07:59.237Z,97789.44
2022-07-25T01:10:28.276Z,97789.44
2022-07-25T01:12:57.537Z,97800.09
2022-07-25T01:15:27.167Z,97798.34
2022-07-25T01:17:57.762Z,97806.50
2022-07-25T01:20:29.454Z,97809.84
2022-07-25T01:22:59.019Z,97824.72
2022-07-25T01:25:29.332Z,97820.44
2022-07-25T01:27:59.347Z,97823.78
2022-07-25T01:30:28.472Z,97827.63
2022-07-25T01:32:57.626Z,97824.59
2022-07-25T01:35:26.812Z,97831.31
2022-07-25T01:37:55.731Z,97843.56
2022-07-25T01:40:24.717Z,97834.31
2022-07-25T01:42:53.885Z,97834.25
2022-07-25T01:45:22.905Z,97837.59
2022-07-25T01:47:52.095Z,97839.22
2022-07-25T01:50:21.200Z,97840.47
2022-07-25T01:52:50.221Z,97840.63
2022-07-25T01:55:19.775Z,97847.47
2022-07-25T01:57:49.714Z,97853.16
2022-07-25T02:00:20.497Z,97859.66
2022-07-25T02:02:49.646Z,97856.50
2022-07-25T02:05:18.673Z,97863.06
2022-07-25T02:07:47.774Z,97864.88
2022-07-25T02:10:16.785Z,97871.94
2022-07-25T02:12:45.699Z,97870.31
2022-07-25T02:15:14.809Z,97873.53
2022-07-25T02:17:44.948Z,97866.69
2022-07-25T02:20:14.119Z,97871.16
2022-07-25T02:22:42.987Z,97875.47
2022-07-25T02:25:12.102Z,97879.09
2022-07-25T02:27:41.449Z,97873.84
2022-07-25T02:30:10.678Z,97884.03
2022-07-25T02:32:39.861Z,97875.28
2022-07-25T02:35:09.994Z,97892.28
2022-07-25T02:37:43.082Z,97881.69
2022-07-25T02:40:12.704Z,97890.19
2022-07-25T02:42:41.540Z,97883.78
2022-07-25T02:45:11.772Z,97886.28
2022-07-25T02:47:40.914Z,97881.16
2022-07-25T02:50:14.603Z,97886.06
2022-07-25T02:52:45.192Z,97884.38
2022-07-25T02:55:14.319Z,97891.06
2022-07-25T02:57:43.318Z,97880.66
2022-07-25T03:00:13.094Z,97878.28
2022-07-25T03:02:42.656Z,97880.28
2022-07-25T03:05:15.624Z,97887.22
2022-07-25T03:07:46.117Z,97894.75
2022-07-25T03:10:16.300Z,97904.22
2022-07-25T03:12:45.838Z,97903.81
2022-07-25T03:15:15.578Z,97916.75
2022-07-25T03:17:44.580Z,97905.31
2022-07-25T03:20:13.680Z,97909.78
2022-07-25T03:22:43.088Z,97911.47
2022-07-25T03:25:15.683Z,97911.59
2022-07-25T03:27:51.176Z,97920.25
2022-07-25T03:30:20.080Z,97919.41
2022-07-25T03:32:49.419Z,97916.91
2022-07-25T03:35:18.517Z,97918.13
2022-07-25T03:37:47.419Z,97924.31
2022-07-25T03:40:16.508Z,97921.94
2022-07-25T03:42:45.608Z,97923.44
2022-07-25T03:45:14.380Z,97926.22
2022-07-25T03:47:43.467Z,97923.56
2022-07-25T03:50:13.311Z,97930.66
2022-07-25T03:52:42.281Z,97929.81
2022-07-25T03:55:12.544Z,97933.69
2022-07-25T03:57:41.631Z,97942.47
2022-07-25T04:00:12.017Z,97947.44
2022-07-25T04:02:41.353Z,97951.06
2022-07-25T04:05:11.046Z,97953.88
2022-07-25T04:07:40.729Z,97953.66
2022-07-25T04:10:10.901Z,97954.47
2022-07-25T04:12:39.965Z,97961.72
2022-07-25T04:15:09.717Z,97966.19
2022-07-25T04:17:39.677Z,97958.56
2022-07-25T04:20:09.300Z,97965.66
2022-07-25T04:22:40.962Z,97966.50
2022-07-25T04:25:11.497Z,97978.22
2022-07-25T04:27:40.252Z,97973.88
2022-07-25T04:30:09.828Z,97975.44
2022-07-25T04:32:39.027Z,97977.69
2022-07-25T04:35:11.563Z,97981.19
2022-07-25T04:37:40.834Z,97980.16
2022-07-25T04:40:11.641Z,97978.69
2022-07-25T04:42:40.733Z,97973.75
2022-07-25T04:45:10.312Z,97973.63
2022-07-25T04:47:39.595Z,97979.78
2022-07-25T04:50:09.356Z,97975.66
2022-07-25T04:52:38.945Z,97969.69
2022-07-25T04:55:08.345Z,97971.69
2022-07-25T04:57:37.720Z,97971.72
2022-07-25T05:00:09.183Z,97966.81
2022-07-25T05:02:38.226Z,97962.19
2022-07-25T05:05:21.149Z,97966.16
2022-07-25T05:07:52.700Z,97964.03
2022-07-25T05:10:22.014Z,97964.59
2022-07-25T05:12:51.309Z,97960.53
2022-07-25T05:15:20.777Z,97962.19
2022-07-25T05:17:49.973Z,97969.91
2022-07-25T05:20:19.373Z,97960.66
2022-07-25T05:22:48.490Z,97964.66
2022-07-25T05:25:18.855Z,97973.78
2022-07-25T05:27:48.506Z,97969.25
2022-07-25T05:30:17.795Z,97975.06
2022-07-25T05:32:47.570Z,97970.06
2022-07-25T05:35:17.926Z,97973.59
2022-07-25T05:37:46.770Z,97985.03
2022-07-25T05:40:15.899Z,97986.56
2022-07-25T05:42:44.828Z,97989.91
2022-07-25T05:45:13.968Z,97993.34
2022-07-25T05:47:43.206Z,97985.72
2022-07-25T05:50:12.071Z,98001.41
2022-07-25T05:52:50.780Z,98000.09
2022-07-25T05:55:20.148Z,98006.78
2022-07-25T05:57:48.952Z,97999.25
2022-07-25T06:00:18.101Z,98003.53
2022-07-25T06:02:47.194Z,97999.38
2022-07-25T06:05:16.564Z,97994.47
2022-07-25T06:07:45.641Z,98004.69
2022-07-25T06:10:14.679Z,97996.75
2022-07-25T06:12:43.880Z,98003.09
2022-07-25T06:15:22.635Z,97999.78
2022-07-25T06:17:56.369Z,98006.34
2022-07-25T06:20:25.744Z,97996.19
2022-07-25T06:22:55.205Z,98000.25
2022-07-25T06:25:24.593Z,98002.75
2022-07-25T06:27:53.828Z,97995.66
2022-07-25T06:30:23.073Z,97995.00
2022-07-25T06:32:52.190Z,97993.16
2022-07-25T06:35:21.736Z,97989.81
2022-07-25T06:38:27.619Z,97993.63
2022-07-25T06:40:56.821Z,97995.91
2022-07-25T06:43:25.877Z,97999.16
2022-07-25T06:45:56.067Z,98003.31
2022-07-25T06:48:25.500Z,98000.28
2022-07-25T06:50:54.529Z,97998.75
2022-07-25T06:53:23.527Z,97996.50
2022-07-25T06:55:52.716Z,97997.13
2022-07-25T06:58:24.059Z,97998.94
2022-07-25T07:00:55.368Z,97995.13
2022-07-25T07:03:24.488Z,97990.50
2022-07-25T07:05:53.815Z,97988.84
2022-07-25T07:08:23.024Z,97987.69
2022-07-25T07:10:53.231Z,97982.31
2022-07-25T07:13:25.250Z,97986.56
2022-07-25T07:15:54.821Z,97985.19
2022-07-25T07:18:23.900Z,97983.84
2022-07-25T07:20:53.400Z,97985.66
2022-07-25T07:23:22.748Z,97987.25
2022-07-25T07:25:53.939Z,97983.97
2022-07-25T07:28:23.142Z,97979.94
2022-07-25T07:31:15.293Z,97983.63
2022-07-25T07:33:41.547Z,97969.91
2022-07-25T07:36:11.368Z,97969.63
2022-07-25T07:38:41.356Z,97973.66
2022-07-25T07:41:10.350Z,97973.44
2022-07-25T07:43:39.701Z,97973.63
2022-07-25T07:46:08.958Z,97966.09
2022-07-25T07:48:38.544Z,97954.41
2022-07-25T07:51:08.044Z,97955.41
2022-07-25T07:53:55.395Z,97946.69
2022-07-25T07:56:24.677Z,97946.81
2022-07-25T07:58:53.729Z,97939.91
2022-07-25T08:01:23.302Z,97931.22
2022-07-25T08:03:52.612Z,97928.09
2022-07-25T08:06:22.006Z,97934.25
2022-07-25T08:08:51.041Z,97922.63
2022-07-25T08:11:19.873Z,97920.47
2022-07-25T08:13:49.113Z,97923.63
2022-07-25T08:16:18.462Z,97913.00
2022-07-25T08:18:47.852Z,97910.78
2022-07-25T08:21:17.131Z,97910.38
2022-07-25T08:23:48.084Z,97909.00
2022-07-25T08:26:17.297Z,97896.31
2022-07-25T08:28:46.427Z,97898.09
2022-07-25T08:31:16.336Z,97886.09
2022-07-25T08:33:45.562Z,97885.69
2022-07-25T08:36:14.736Z,97883.59
2022-07-25T08:38:43.706Z,97882.09
2022-07-25T08:41:12.624Z,97875.59
2022-07-25T08:43:42.874Z,97873.59
2022-07-25T08:46:13.630Z,97862.59
2022-07-25T08:48:42.672Z,97862.63
2022-07-25T08:51:12.708Z,97861.72
2022-07-25T08:53:42.262Z,97859.69
2022-07-25T08:56:21.151Z,97850.75
2022-07-25T08:58:52.032Z,97847.44
2022-07-25T09:01:21.365Z,97839.81
2022-07-25T09:03:50.650Z,97834.28
2022-07-25T09:06:21.865Z,97826.47
2022-07-25T09:08:59.873Z,97816.28
2022-07-25T09:11:30.137Z,97812.63
2022-07-25T09:14:01.388Z,97803.16
2022-07-25T09:16:32.543Z,97799.53
2022-07-25T09:19:16.371Z,97790.06
2022-07-25T09:21:47.852Z,97784.53
2022-07-25T09:24:20.447Z,97780.03
2022-07-25T09:26:57.801Z,97783.19
2022-07-25T09:29:29.816Z,97784.38
2022-07-25T09:32:01.094Z,97780.53
2022-07-25T09:34:39.182Z,97776.53
2022-07-25T09:37:11.024Z,97766.69
2022-07-25T09:39:50.322Z,97764.53
2022-07-25T09:42:33.159Z,97768.06
2022-07-25T09:45:15.963Z,97762.88
2022-07-25T09:47:56.806Z,97760.72
2022-07-25T09:50:28.204Z,97758.41
2022-07-25T09:53:02.936Z,97754.56
2022-07-25T09:55:32.671Z,97751.06
2022-07-25T09:58:01.416Z,97744.38
2022-07-25T10:00:32.779Z,97740.75
2022-07-25T10:03:19.414Z,97738.59
2022-07-25T10:06:03.427Z,97735.59
2022-07-25T10:08:41.534Z,97735.75
2022-07-25T10:11:28.898Z,97737.22
2022-07-25T10:13:59.206Z,97727.25
2022-07-25T10:16:29.018Z,97729.63
2022-07-25T10:19:00.197Z,97725.97
2022-07-25T10:21:30.240Z,97724.72
2022-07-25T10:24:09.085Z,97723.47
2022-07-25T10:26:41.279Z,97724.47
2022-07-25T10:29:15.104Z,97714.66
2022-07-25T10:31:51.443Z,97705.47
2022-07-25T10:34:32.622Z,97699.66
2022-07-25T10:37:22.352Z,97703.34
2022-07-25T10:39:51.566Z,97701.34
2022-07-25T10:42:24.114Z,97703.31
2022-07-25T10:44:58.655Z,97698.47
2022-07-25T10:47:29.780Z,97691.78
2022-07-25T10:50:21.895Z,97685.31
2022-07-25T10:53:02.366Z,97686.97
2022-07-25T10:55:31.379Z,97685.47
2022-07-25T10:58:17.446Z,97683.91
2022-07-25T11:00:47.298Z,97683.41
2022-07-25T11:03:18.605Z,97675.72
2022-07-25T11:05:49.101Z,97677.31
2022-07-25T11:08:22.646Z,97680.09
2022-07-25T11:10:56.227Z,97677.00
2022-07-25T11:13:25.864Z,97677.25
2022-07-25T11:15:59.661Z,97667.84
2022-07-25T11:18:37.665Z,97671.28
2022-07-25T11:21:08.853Z,97674.75
2022-07-25T11:23:38.290Z,97678.16
2022-07-25T11:26:13.594Z,97684.16
2022-07-25T11:28:47.406Z,97665.38
2022-07-25T11:31:17.975Z,97688.97
2022-07-25T11:33:49.807Z,97676.81
2022-07-25T11:36:19.440Z,97680.88
2022-07-25T11:38:52.182Z,97681.25
2022-07-25T11:41:31.176Z,97680.97
2022-07-25T11:44:00.400Z,97681.16
2022-07-25T11:46:29.487Z,97687.00
2022-07-25T11:49:07.314Z,97691.06
2022-07-25T11:51:40.754Z,97675.38
2022-07-25T11:54:14.257Z,97691.19
2022-07-25T11:56:44.706Z,97683.50
2022-07-25T11:59:14.027Z,97684.28
2022-07-25T12:01:44.732Z,97683.84
2022-07-25T12:04:19.841Z,97694.28
2022-07-25T12:06:51.910Z,97687.00
2022-07-25T12:09:23.175Z,97693.00
2022-07-25T12:12:03.051Z,97692.19
2022-07-25T12:14:35.401Z,97691.56
2022-07-25T12:17:04.677Z,97694.22
2022-07-25T12:19:33.631Z,97694.59
2022-07-25T12:22:02.609Z,97692.47
2022-07-25T12:24:31.898Z,97697.38
2022-07-25T12:27:00.714Z,97701.31
2022-07-25T12:29:29.844Z,97709.13
2022-07-25T12:31:58.972Z,97713.75
2022-07-25T12:34:27.816Z,97697.97
2022-07-25T12:36:57.392Z,97700.94
2022-07-25T12:39:26.464Z,97717.44
2022-07-25T12:41:55.393Z,97720.94
2022-07-25T12:44:24.476Z,97725.78
2022-07-25T12:46:53.946Z,97723.44
2022-07-25T12:49:23.477Z,97723.78
2022-07-25T12:51:57.760Z,97733.84
2022-07-25T12:54:27.412Z,97743.22
2022-07-25T12:56:56.420Z,97750.03
2022-07-25T12:59:25.493Z,97754.84
2022-07-25T13:01:54.606Z,97753.94
2022-07-25T13:04:23.995Z,97749.47
2022-07-25T13:06:53.888Z,97759.22
2022-07-25T13:09:23.521Z,97763.22
2022-07-25T13:11:52.788Z,97770.72
2022-07-25T13:14:22.493Z,97778.66
2022-07-25T13:16:52.259Z,97776.25
2022-07-25T13:19:21.785Z,97777.97
2022-07-25T13:21:50.773Z,97788.56
2022-07-25T13:24:19.939Z,97788.81
2022-07-25T13:26:49.147Z,97792.97
2022-07-25T13:29:19.295Z,97793.75
2022-07-25T13:31:49.647Z,97802.81
2022-07-25T13:34:19.613Z,97796.28
2022-07-25T13:36:49.111Z,97794.16
2022-07-25T13:39:18.264Z,97800.16
2022-07-25T13:41:47.276Z,97800.84
2022-07-25T13:44:17.334Z,97804.50
2022-07-25T13:46:50.966Z,97797.53
2022-07-25T13:49:20.099Z,97800.72
2022-07-25T13:51:49.466Z,97801.00
2022-07-25T13:54:18.662Z,97793.91
2022-07-25T13:56:48.627Z,97801.69
2022-07-25T13:59:21.461Z,97801.94
2022-07-25T14:01:52.281Z,97803.34
2022-07-25T14:04:21.804Z,97811.69
2022-07-25T14:06:53.008Z,97809.34
2022-07-25T14:09:22.958Z,97809.06
2022-07-25T14:11:51.946Z,97813.22
2022-07-25T14:14:21.015Z,97818.94
2022-07-25T14:16:50.167Z,97819.34
2022-07-25T14:19:19.744Z,97821.72
2022-07-25T14:21:48.839Z,97827.84
2022-07-25T14:24:17.814Z,97832.31
2022-07-25T14:26:46.752Z,97832.28
2022-07-25T14:29:15.927Z,97834.94
2022-07-25T14:31:44.765Z,97831.31
2022-07-25T14:34:16.620Z,97835.78
2022-07-25T14:36:48.415Z,97843.03
2022-07-25T14:39:18.229Z,97837.31
2022-07-25T14:41:47.111Z,97836.06
2022-07-25T14:44:15.839Z,97838.94
2022-07-25T14:46:45.900Z,97840.56
2022-07-25T14:49:15.404Z,97843.75
2022-07-25T14:51:47.003Z,97847.69
2022-07-25T14:54:16.181Z,97849.75
2022-07-25T14:56:46.608Z,97846.41
2022-07-25T14:59:15.772Z,97846.69
2022-07-25T15:01:44.959Z,97849.94
2022-07-25T15:04:14.572Z,97860.19
2022-07-25T15:06:43.632Z,97865.63
2022-07-25T15:09:12.654Z,97876.88
2022-07-25T15:11:42.026Z,97876.34
2022-07-25T15:14:10.985Z,97874.66
2022-07-25T15:16:40.596Z,97886.50
2022-07-25T15:19:17.351Z,97886.78
2022-07-25T15:21:47.498Z,97899.59
2022-07-25T15:24:17.329Z,97892.63
2022-07-25T15:26:46.336Z,97892.47
2022-07-25T15:29:21.517Z,97886.75
2022-07-25T15:31:50.865Z,97891.31
2022-07-25T15:34:20.259Z,97902.88
2022-07-25T15:36:49.567Z,97899.53
2022-07-25T15:39:20.448Z,97911.50
2022-07-25T15:41:49.584Z,97911.50
2022-07-25T15:44:18.612Z,97918.19
2022-07-25T15:46:47.887Z,97927.38
2022-07-25T15:49:17.361Z,97927.72
2022-07-25T15:51:46.343Z,97925.59
2022-07-25T15:54:15.331Z,97930.19
2022-07-25T15:56:44.287Z,97927.59
2022-07-25T15:59:14.185Z,97935.38
2022-07-25T16:01:45.023Z,97934.69
2022-07-25T16:04:14.351Z,97928.13
2022-07-25T16:06:43.559Z,97930.41
2022-07-25T16:09:13.538Z,97935.09
2022-07-25T16:11:42.858Z,97930.56
2022-07-25T16:14:12.319Z,97926.19
2022-07-25T16:16:41.847Z,97931.16
2022-07-25T16:19:11.134Z,97930.63
2022-07-25T16:21:41.149Z,97923.91
2022-07-25T16:24:13.009Z,97932.56
2022-07-25T16:26:42.375Z,97940.03
2022-07-25T16:29:11.835Z,97936.19
2022-07-25T16:31:41.923Z,97936.28
2022-07-25T16:34:11.034Z,97934.75
2022-07-25T16:36:40.186Z,97937.97
2022-07-25T16:39:10.391Z,97942.25
2022-07-25T16:41:39.787Z,97935.56
2022-07-25T16:44:08.756Z,97947.91
2022-07-25T16:46:38.862Z,97950.28
2022-07-25T16:49:08.223Z,97955.06
2022-07-25T16:51:37.506Z,97953.41
2022-07-25T16:54:06.888Z,97951.19
2022-07-25T16:56:38.016Z,97953.13
2022-07-25T16:59:08.590Z,97949.97
2022-07-25T17:01:38.157Z,97960.22
2022-07-25T17:04:07.061Z,97952.88
2022-07-25T17:06:36.098Z,97959.00
2022-07-25T17:09:06.202Z,97966.78
2022-07-25T17:11:38.256Z,97959.53
2022-07-25T17:14:07.456Z,97962.41
2022-07-25T17:16:36.368Z,97956.41
2022-07-25T17:19:05.988Z,97959.31
2022-07-25T17:21:35.037Z,97962.09
2022-07-25T17:24:04.073Z,97965.72
2022-07-25T17:26:33.685Z,97968.09
2022-07-25T17:29:02.933Z,97968.84
2022-07-25T17:31:32.159Z,97964.72
2022-07-25T17:34:01.928Z,97959.31
2022-07-25T17:36:31.129Z,97968.28
2022-07-25T17:39:00.514Z,97960.50
2022-07-25T17:41:30.516Z,97960.78
2022-07-25T17:43:59.480Z,97965.16
2022-07-25T17:46:29.668Z,97966.16
2022-07-25T17:49:00.359Z,97963.94
2022-07-25T17:51:29.598Z,97968.78
2022-07-25T17:53:58.595Z,97962.25
2022-07-25T17:56:27.599Z,97964.19
2022-07-25T17:58:56.772Z,97961.09
2022-07-25T18:01:25.956Z,97961.69
2022-07-25T18:03:55.096Z,97965.69
2022-07-25T18:06:29.582Z,97964.72
2022-07-25T18:08:59.214Z,97960.78
2022-07-25T18:11:28.918Z,97961.34
2022-07-25T18:13:57.826Z,97961.75
2022-07-25T18:16:27.535Z,97966.16
2022-07-25T18:18:56.535Z,97965.41
2022-07-25T18:21:25.643Z,97966.25
2022-07-25T18:23:55.140Z,97965.09
2022-07-25T18:26:24.816Z,97969.53
2022-07-25T18:28:53.806Z,97967.75
2022-07-25T18:31:22.853Z,97971.22
2022-07-25T18:33:52.059Z,97977.09
2022-07-25T18:36:20.801Z,97974.69
2022-07-25T18:38:51.153Z,97976.88
2022-07-25T18:41:29.386Z,97967.75
2022-07-25T18:44:03.750Z,97965.34
2022-07-25T18:46:34.138Z,97963.34
2022-07-25T18:49:03.330Z,97969.09
2022-07-25T18:51:32.370Z,97962.13
2022-07-25T18:54:01.295Z,97968.38
2022-07-25T18:56:31.185Z,97967.56
2022-07-25T18:59:00.800Z,97959.75
2022-07-25T19:01:31.857Z,97956.16
2022-07-25T19:04:01.132Z,97958.78
2022-07-25T19:06:30.276Z,97955.41
2022-07-25T19:08:59.554Z,97951.81
2022-07-25T19:11:28.526Z,97949.19
2022-07-25T19:13:57.591Z,97946.69
2022-07-25T19:16:26.912Z,97951.97
2022-07-25T19:18:56.031Z,97948.88
2022-07-25T19:21:24.842Z,97946.75
2022-07-25T19:23:54.643Z,97942.16
2022-07-25T19:26:23.974Z,97951.88
2022-07-25T19:28:53.180Z,97948.69
2022-07-25T19:31:22.219Z,97949.38
2022-07-25T19:33:51.732Z,97950.81
2022-07-25T19:36:21.025Z,97948.28
2022-07-25T19:38:50.326Z,97955.25
2022-07-25T19:41:19.751Z,97957.41
2022-07-25T19:43:48.998Z,97958.25
2022-07-25T19:46:18.232Z,97960.19
2022-07-25T19:48:47.841Z,97956.59
2022-07-25T19:51:16.853Z,97959.78
2022-07-25T19:53:45.756Z,97952.13
2022-07-25T19:56:15.326Z,97950.22
2022-07-25T19:58:46.051Z,97931.59
2022-07-25T20:01:15.442Z,97936.88
2022-07-25T20:03:44.997Z,97925.47
2022-07-25T20:06:14.151Z,97933.28
2022-07-25T20:08:43.843Z,97927.56
2022-07-25T20:11:12.841Z,97920.44
2022-07-25T20:13:42.386Z,97925.97
2022-07-25T20:16:11.946Z,97914.34
2022-07-25T20:18:40.646Z,97914.09
2022-07-25T20:21:10.209Z,97920.44
2022-07-25T20:23:39.427Z,97909.88
2022-07-25T20:26:08.957Z,97913.88
2022-07-25T20:28:39.003Z,97907.88
2022-07-25T20:31:08.687Z,97905.84
2022-07-25T20:33:37.826Z,97907.66
2022-07-25T20:36:07.151Z,97908.25
2022-07-25T20:38:36.477Z,97902.97
2022-07-25T20:41:06.684Z,97904.59
2022-07-25T20:43:35.828Z,97906.56
2022-07-25T20:46:09.111Z,97900.44
2022-07-25T20:48:38.636Z,97896.75
2022-07-25T20:51:08.538Z,97893.94
2022-07-25T20:53:37.673Z,97899.13
2022-07-25T20:56:07.418Z,97896.59
2022-07-25T20:58:36.539Z,97895.16
2022-07-25T21:01:05.790Z,97896.16
2022-07-25T21:03:37.397Z,97891.56
2022-07-25T21:06:06.697Z,97895.31
2022-07-25T21:08:35.512Z,97897.00
2022-07-25T21:11:05.834Z,97902.03
2022-07-25T21:13:35.086Z,97897.69
2022-07-25T21:16:04.096Z,97900.59
2022-07-25T21:18:33.269Z,97898.22
2022-07-25T21:21:02.273Z,97902.75
2022-07-25T21:23:31.306Z,97899.41
2022-07-25T21:26:01.363Z,97900.84
2022-07-25T21:28:30.126Z,97901.53
2022-07-25T21:30:59.138Z,97900.84
2022-07-25T21:33:28.108Z,97903.00
2022-07-25T21:35:57.361Z,97908.75
2022-07-25T21:38:28.844Z,97902.06
2022-07-25T21:40:59.944Z,97913.47
2022-07-25T21:43:29.167Z,97909.38
2022-07-25T21:45:58.341Z,97905.53
2022-07-25T21:48:45.990Z,97906.25
2022-07-25T21:51:19.131Z,97896.94
2022-07-25T21:53:53.324Z,97908.03
2022-07-25T21:56:22.458Z,97912.75
2022-07-25T21:58:51.816Z,97906.25
2022-07-25T22:01:21.824Z,97911.78
2022-07-25T22:03:53.009Z,97898.13
2022-07-25T22:06:22.473Z,97899.69
2022-07-25T22:08:51.595Z,97893.56
2022-07-25T22:11:38.293Z,97904.25
2022-07-25T22:14:10.019Z,97898.84
2022-07-25T22:16:39.796Z,97903.28
2022-07-25T22:19:09.136Z,97899.69
2022-07-25T22:21:38.708Z,97903.84
2022-07-25T22:24:08.199Z,97902.31
2022-07-25T22:26:37.905Z,97900.88
2022-07-25T22:29:07.086Z,97907.16
2022-07-25T22:31:36.183Z,97891.75
2022-07-25T22:34:06.121Z,97902.69
2022-07-25T22:36:35.457Z,97912.44
2022-07-25T22:39:05.398Z,97902.69
2022-07-25T22:41:34.529Z,97903.78
2022-07-25T22:44:03.853Z,97910.00
2022-07-25T22:46:33.300Z,97909.91
2022-07-25T22:49:02.665Z,97915.16
2022-07-25T22:51:32.107Z,97912.91
2022-07-25T22:54:02.068Z,97913.16
2022-07-25T22:56:31.768Z,97914.94
2022-07-25T22:59:00.763Z,97911.94
2022-07-25T23:01:29.948Z,97909.56
2022-07-25T23:03:59.068Z,97908.72
2022-07-25T23:06:28.450Z,97906.81
2022-07-25T23:08:57.977Z,97915.53
2022-07-25T23:11:28.355Z,97917.84
2022-07-25T23:13:57.344Z,97925.06
2022-07-25T23:16:29.059Z,97931.19
2022-07-25T23:18:58.614Z,97929.50
2022-07-25T23:21:28.324Z,97927.81
2022-07-25T23:23:58.596Z,97927.81
2022-07-25T23:26:29.511Z,97927.59
2022-07-25T23:28:58.522Z,97931.28
2022-07-25T23:31:27.696Z,97925.91
2022-07-25T23:33:56.872Z,97930.59
2022-07-25T23:36:25.806Z,97926.75
2022-07-25T23:38:55.000Z,97934.75
2022-07-25T23:41:23.945Z,97932.28
2022-07-25T23:43:57.457Z,97928.66
2022-07-25T23:46:31.051Z,97927.09
2022-07-25T23:49:00.841Z,97930.00
2022-07-25T23:51:30.052Z,97932.28
2022-07-25T23:53:59.478Z,97944.13
2022-07-25T23:56:29.278Z,97943.19
2022-07-25T23:58:58.984Z,97933.59
